Inicio METAR Ruta Wind Satelite

Informe Meteorológico

Fecha: 2020/09/19 20:57:29 Local
2020.09.20 01:57 UTC


Estado: VENCIDO
Operación:
Station name not available
2020.08.14 1400 UTC
Wind: from the NW (310 degrees) at 5 MPH (4 KT):0
Visibility: greater than 7 mile(s):0
Sky conditions: partly cloudy
Temperature: 80 F (27 C)
Dew Point: 73 F (23 C)
Relative Humidity: 78%
Pressure (altimeter): 29.87 in. Hg (1011 hPa)
ob: SKPD 141400Z 31004KT 9999 SCT015 27/23 A2987
cycle: 14